Time;durP1;ratioP1;P1;durP2;ratioP2;P2;SDS_P1;SDS_P2;PMS_P1;PMS_P2;Temp;Humidity;BMP_temperature;BMP_pressure;BME280_temperature;BME280_humidity;BME280_pressure;Samples;Min_cycle;Max_cycle;Signal;HPM_P1;HPM_P2
2022/09/30 00:01:10;;;;;;;;;;;;;;;9.25;78.05;100277.81;5085181;28;20287;-76
2022/09/30 00:03:36;;;;;;;;;;;;;;;9.27;76.42;100286.44;5084677;28;19929;-76
2022/09/30 00:06:03;;;;;;;;;;;;;;;9.26;76.96;100277.75;5087041;28;19924;-76
2022/09/30 00:08:30;;;;;;;;;;;;;;;9.49;76.25;100281.75;5070306;28;19939;-76
2022/09/30 00:11:00;;;;;;;;;;;;;;;9.66;75.15;100272.97;5062838;28;19940;-76
2022/09/30 00:13:26;;;;;;;;;;;;;;;9.72;74.46;100281.31;5063310;28;19955;-76
2022/09/30 00:15:54;;;;;;;;;;;;;;;9.57;72.60;100279.53;5065479;28;19932;-76
2022/09/30 00:18:21;;;;;;;;;;;;;;;10.32;71.29;100278.81;5063465;28;19932;-76
2022/09/30 00:20:47;;;;;;;;;;;;;;;10.12;71.78;100269.47;5064486;28;19924;-76
2022/09/30 00:23:13;;;;;;;;;;;;;;;9.87;72.83;100270.91;5065931;28;19988;-76
2022/09/30 00:25:39;;;;;;;;;;;;;;;9.58;73.67;100277.75;5063382;28;19931;-76
2022/09/30 00:28:06;;;;;;;;;;;;;;;9.53;73.83;100274.56;5069201;28;20307;-76
2022/09/30 00:30:33;;;;;;;;;;;;;;;9.34;72.71;100281.72;5064718;28;20002;-76
2022/09/30 00:33:01;;;;;;;;;;;;;;;9.05;73.03;100276.28;5063813;28;20391;-76
2022/09/30 00:35:27;;;;;;;;;;;;;;;8.26;77.82;100288.13;5064874;28;19932;-76
2022/09/30 00:37:54;;;;;;;;;;;;;;;8.41;78.46;100291.78;5064489;28;20442;-76
2022/09/30 00:40:20;;;;;;;;;;;;;;;8.72;77.48;100298.94;5073638;28;19972;-76
2022/09/30 00:42:47;;;;;;;;;;;;;;;8.74;76.97;100295.31;5067186;28;19928;-77
2022/09/30 00:45:16;;;;;;;;;;;;;;;8.84;75.34;100294.81;5064535;28;20398;-76
2022/09/30 00:47:48;;;;;;;;;;;;;;;8.69;73.97;100297.31;5063326;28;19932;-76
2022/09/30 00:50:25;;;;;;;;;;;;;;;8.24;76.17;100294.38;5063949;28;20008;-76
2022/09/30 00:52:54;;;;;;;;;;;;;;;7.75;79.00;100298.47;5055906;28;19931;-76
2022/09/30 00:55:25;;;;;;;;;;;;;;;7.82;80.14;100307.72;5085046;28;19924;-76
2022/09/30 00:57:52;;;;;;;;;;;;;;;8.29;78.52;100305.44;5085111;28;19932;-76
2022/09/30 01:00:18;;;;;;;;;;;;;;;8.21;78.58;100312.78;5062323;28;19932;-76
2022/09/30 01:02:45;;;;;;;;;;;;;;;8.52;76.56;100309.53;5065749;28;19925;-76
2022/09/30 01:05:12;;;;;;;;;;;;;;;8.53;75.88;100306.88;5065903;28;19924;-76
2022/09/30 01:07:40;;;;;;;;;;;;;;;8.61;74.76;100302.06;5063398;28;19924;-76
2022/09/30 01:10:06;;;;;;;;;;;;;;;8.62;73.78;100309.00;5079408;28;19932;-76
2022/09/30 01:12:33;;;;;;;;;;;;;;;8.24;75.04;100304.81;5057460;28;20383;-76
2022/09/30 01:15:00;;;;;;;;;;;;;;;7.78;78.44;100309.63;5062523;28;19947;-75
2022/09/30 01:17:34;;;;;;;;;;;;;;;7.83;79.40;100318.06;5065051;28;19924;-75
2022/09/30 01:20:13;;;;;;;;;;;;;;;8.31;78.05;100314.06;5057906;28;19925;-75
2022/09/30 01:22:44;;;;;;;;;;;;;;;8.32;76.73;100316.59;5070824;28;19989;-75
2022/09/30 01:25:28;;;;;;;;;;;;;;;8.36;75.25;100309.44;5084102;28;19932;-75
2022/09/30 01:28:08;;;;;;;;;;;;;;;7.77;77.24;100317.50;5085286;28;19928;-75
2022/09/30 01:30:43;;;;;;;;;;;;;;;7.75;79.34;100308.91;5084794;28;19924;-75
2022/09/30 01:33:22;;;;;;;;;;;;;;;7.91;79.26;100303.84;5086486;28;19928;-75
2022/09/30 01:36:13;;;;;;;;;;;;;;;8.30;76.43;100301.94;5084804;28;19924;-75
2022/09/30 01:38:45;;;;;;;;;;;;;;;8.58;74.46;100309.22;5044214;28;19924;-75
2022/09/30 01:41:17;;;;;;;;;;;;;;;8.30;74.06;100309.75;5061757;28;19932;-74
2022/09/30 01:43:47;;;;;;;;;;;;;;;8.01;76.32;100307.69;5063682;28;20384;-74
2022/09/30 01:46:22;;;;;;;;;;;;;;;8.26;76.15;100309.03;5066492;28;20330;-74
2022/09/30 01:48:54;;;;;;;;;;;;;;;8.43;75.95;100320.44;5066853;28;21499;-75
2022/09/30 01:51:24;;;;;;;;;;;;;;;8.45;74.15;100308.16;5065838;28;20307;-75
2022/09/30 01:53:56;;;;;;;;;;;;;;;8.23;73.64;100303.13;5065903;28;20576;-76
2022/09/30 01:56:25;;;;;;;;;;;;;;;7.51;78.54;100320.47;5066168;28;19924;-76
2022/09/30 01:58:55;;;;;;;;;;;;;;;7.56;80.27;100315.91;5069106;28;19924;-76
2022/09/30 02:01:27;;;;;;;;;;;;;;;7.89;78.94;100319.56;5066965;28;20411;-76
2022/09/30 02:03:56;;;;;;;;;;;;;;;8.56;74.92;100319.78;5080957;28;19928;-76
2022/09/30 02:06:25;;;;;;;;;;;;;;;8.65;75.26;100308.84;5086527;28;19928;-76
2022/09/30 02:08:56;;;;;;;;;;;;;;;8.32;75.64;100313.97;5086170;28;20002;-76
2022/09/30 02:11:24;;;;;;;;;;;;;;;8.12;75.68;100316.69;5074319;28;19932;-76
2022/09/30 02:13:55;;;;;;;;;;;;;;;8.17;74.48;100326.91;5058846;28;19956;-76
2022/09/30 02:16:25;;;;;;;;;;;;;;;8.09;75.22;100323.84;5066474;28;20365;-76
2022/09/30 02:18:54;;;;;;;;;;;;;;;7.51;78.54;100336.97;5069533;28;19924;-76
2022/09/30 02:21:23;;;;;;;;;;;;;;;7.56;80.22;100329.81;5066489;28;19924;-76
2022/09/30 02:23:52;;;;;;;;;;;;;;;7.71;78.65;100328.25;5066857;28;19956;-76
2022/09/30 02:26:21;;;;;;;;;;;;;;;8.06;76.74;100322.19;5066643;28;19932;-76
2022/09/30 02:28:51;;;;;;;;;;;;;;;8.26;75.40;100321.25;5066968;28;19932;-76
2022/09/30 02:31:21;;;;;;;;;;;;;;;8.30;75.01;100317.59;5067233;28;20452;-75
2022/09/30 02:33:53;;;;;;;;;;;;;;;8.19;75.15;100319.84;5064677;28;19924;-76
2022/09/30 02:36:21;;;;;;;;;;;;;;;8.26;74.52;100326.47;5067739;28;20287;-76
2022/09/30 02:38:50;;;;;;;;;;;;;;;8.31;74.30;100325.34;5066579;28;19947;-76
2022/09/30 02:41:20;;;;;;;;;;;;;;;8.31;74.06;100319.28;5066004;28;19931;-75
2022/09/30 02:43:47;;;;;;;;;;;;;;;7.96;73.57;100326.16;5067080;28;19935;-75
2022/09/30 02:46:22;;;;;;;;;;;;;;;7.76;73.56;100332.31;5068046;28;19924;-75
2022/09/30 02:48:56;;;;;;;;;;;;;;;7.91;73.27;100335.16;5067910;28;20276;-75
2022/09/30 02:51:27;;;;;;;;;;;;;;;7.72;74.22;100335.97;5069243;28;19982;-75
2022/09/30 02:54:02;;;;;;;;;;;;;;;7.50;76.34;100343.09;5066847;28;19936;-75
2022/09/30 02:56:37;;;;;;;;;;;;;;;7.69;76.14;100332.66;5066175;28;19929;-75
2022/09/30 02:59:04;;;;;;;;;;;;;;;7.91;75.17;100338.59;5064533;28;19967;-75
2022/09/30 03:01:30;;;;;;;;;;;;;;;7.95;73.95;100334.06;5065434;28;19964;-76
2022/09/30 03:04:00;;;;;;;;;;;;;;;8.04;72.67;100336.25;5067025;28;19924;-76
2022/09/30 03:06:26;;;;;;;;;;;;;;;8.12;72.32;100344.56;5065925;28;19925;-76
2022/09/30 03:08:53;;;;;;;;;;;;;;;8.16;72.01;100346.13;5063584;28;19931;-76
2022/09/30 03:11:21;;;;;;;;;;;;;;;7.99;71.78;100339.06;5067565;28;19931;-76
2022/09/30 03:13:59;;;;;;;;;;;;;;;7.72;71.96;100345.59;5065704;28;19925;-75
2022/09/30 03:16:30;;;;;;;;;;;;;;;7.75;73.86;100341.09;5065705;28;20380;-76
2022/09/30 03:19:14;;;;;;;;;;;;;;;7.60;75.39;100352.22;5062809;28;19947;-76
2022/09/30 03:21:53;;;;;;;;;;;;;;;7.51;75.75;100354.38;5065013;28;19925;-75
2022/09/30 03:24:27;;;;;;;;;;;;;;;7.80;73.66;100354.75;5065683;28;19932;-75
2022/09/30 03:27:00;;;;;;;;;;;;;;;7.93;72.92;100354.19;5061510;28;20268;-75
2022/09/30 03:29:31;;;;;;;;;;;;;;;7.56;73.89;100358.50;5065152;28;20300;-76
2022/09/30 03:32:06;;;;;;;;;;;;;;;7.55;74.96;100361.16;5065950;28;19928;-75
2022/09/30 03:34:38;;;;;;;;;;;;;;;7.55;74.93;100369.84;5067189;28;20020;-75
2022/09/30 03:37:10;;;;;;;;;;;;;;;7.16;74.59;100374.22;5066284;28;19935;-75
2022/09/30 03:39:45;;;;;;;;;;;;;;;6.97;76.28;100375.91;5065565;28;19924;-75
2022/09/30 03:42:16;;;;;;;;;;;;;;;7.19;75.98;100379.31;5064631;28;20364;-74
2022/09/30 03:44:46;;;;;;;;;;;;;;;7.44;74.64;100384.28;5065235;28;19924;-74
2022/09/30 03:47:14;;;;;;;;;;;;;;;7.21;74.85;100383.53;5046389;28;19924;-74
2022/09/30 03:49:44;;;;;;;;;;;;;;;7.20;74.73;100381.84;5065160;28;20315;-75
2022/09/30 03:52:13;;;;;;;;;;;;;;;7.18;75.79;100393.25;5066194;28;19937;-74
2022/09/30 03:54:44;;;;;;;;;;;;;;;7.24;74.89;100380.78;5064819;28;19931;-75
2022/09/30 03:57:10;;;;;;;;;;;;;;;7.17;74.66;100388.94;5080065;28;19936;-76
2022/09/30 03:59:37;;;;;;;;;;;;;;;7.26;74.49;100385.94;5087197;28;19947;-75
2022/09/30 04:02:04;;;;;;;;;;;;;;;7.30;74.70;100396.19;5085767;28;19931;-73
2022/09/30 04:04:30;;;;;;;;;;;;;;;7.05;75.88;100400.75;5075720;28;20331;-73
2022/09/30 04:06:56;;;;;;;;;;;;;;;7.19;76.48;100405.38;5066431;28;19924;-73
2022/09/30 04:09:26;;;;;;;;;;;;;;;6.98;77.75;100412.38;5068996;28;20145;-76
2022/09/30 04:11:52;;;;;;;;;;;;;;;6.71;78.83;100414.34;5066960;28;19924;-74
2022/09/30 04:14:18;;;;;;;;;;;;;;;6.40;79.56;100424.28;5066618;28;19924;-73
2022/09/30 04:16:45;;;;;;;;;;;;;;;6.72;79.09;100416.06;5063538;28;19928;-74
2022/09/30 04:19:11;;;;;;;;;;;;;;;6.96;78.98;100421.13;5064160;28;19925;-75
2022/09/30 04:21:37;;;;;;;;;;;;;;;7.15;79.39;100417.69;5065126;28;19947;-75
2022/09/30 04:24:04;;;;;;;;;;;;;;;7.48;77.90;100438.00;5063097;28;19924;-75
2022/09/30 04:26:31;;;;;;;;;;;;;;;7.34;78.81;100442.06;5063415;28;19931;-75
2022/09/30 04:28:58;;;;;;;;;;;;;;;6.82;81.37;100446.03;5064693;28;19924;-75
2022/09/30 04:31:24;;;;;;;;;;;;;;;6.69;82.77;100444.81;5063109;28;19931;-75
2022/09/30 04:33:51;;;;;;;;;;;;;;;6.39;83.88;100446.06;5065454;28;19924;-75
2022/09/30 04:36:17;;;;;;;;;;;;;;;6.55;83.12;100443.66;5066662;28;20303;-74
2022/09/30 04:38:43;;;;;;;;;;;;;;;6.64;82.26;100440.72;5063822;28;20376;-74
2022/09/30 04:41:15;;;;;;;;;;;;;;;6.58;82.25;100441.78;5065437;28;19925;-74
2022/09/30 04:43:44;;;;;;;;;;;;;;;6.41;82.85;100446.81;5065021;28;20342;-75
2022/09/30 04:46:10;;;;;;;;;;;;;;;6.82;81.38;100438.19;5065665;28;19985;-76
2022/09/30 04:48:37;;;;;;;;;;;;;;;7.04;80.98;100438.16;5057792;28;20596;-75
2022/09/30 04:51:03;;;;;;;;;;;;;;;7.47;79.33;100450.19;5064882;28;19936;-74
2022/09/30 04:53:29;;;;;;;;;;;;;;;7.64;78.47;100446.88;5063125;28;19924;-74
2022/09/30 04:55:59;;;;;;;;;;;;;;;7.54;78.12;100445.59;5065651;28;19925;-74
2022/09/30 04:58:26;;;;;;;;;;;;;;;7.06;78.33;100453.75;5064650;28;19936;-75
2022/09/30 05:00:59;;;;;;;;;;;;;;;6.90;80.71;100444.84;5063780;28;20308;-74
2022/09/30 05:03:25;;;;;;;;;;;;;;;7.39;79.11;100448.84;5064593;28;20550;-74
2022/09/30 05:05:51;;;;;;;;;;;;;;;7.75;76.92;100453.31;5065836;28;19925;-74
2022/09/30 05:08:18;;;;;;;;;;;;;;;7.91;75.62;100456.06;5063967;28;20307;-74
2022/09/30 05:10:47;;;;;;;;;;;;;;;7.90;74.40;100454.38;5067609;28;20376;-74
2022/09/30 05:13:13;;;;;;;;;;;;;;;7.58;73.97;100462.78;5072414;28;19985;-77
2022/09/30 05:15:39;;;;;;;;;;;;;;;7.73;73.70;100462.97;5065699;28;20292;-77
2022/09/30 05:18:07;;;;;;;;;;;;;;;7.52;74.30;100456.09;5063756;28;20280;-79
2022/09/30 05:20:34;;;;;;;;;;;;;;;7.10;75.32;100463.97;5067432;28;20402;-77
2022/09/30 05:23:00;;;;;;;;;;;;;;;6.91;77.03;100472.63;5068972;28;19925;-76
2022/09/30 05:25:27;;;;;;;;;;;;;;;7.21;76.87;100473.94;5069061;28;19924;-76
2022/09/30 05:27:53;;;;;;;;;;;;;;;7.35;75.77;100472.44;5069695;28;19924;-75
2022/09/30 05:30:19;;;;;;;;;;;;;;;7.11;74.86;100480.47;5067103;28;19932;-76
2022/09/30 05:32:45;;;;;;;;;;;;;;;7.11;75.03;100480.47;5066679;28;19935;-75
2022/09/30 05:35:13;;;;;;;;;;;;;;;7.32;74.31;100487.38;5069283;28;19928;-76
2022/09/30 05:37:39;;;;;;;;;;;;;;;7.54;73.64;100477.72;5074612;28;20442;-76
2022/09/30 05:40:07;;;;;;;;;;;;;;;7.72;73.30;100482.13;5076890;28;19929;-76
2022/09/30 05:42:34;;;;;;;;;;;;;;;7.47;72.58;100497.16;5063243;28;19935;-75
2022/09/30 05:45:01;;;;;;;;;;;;;;;6.61;77.26;100491.19;5066452;28;19974;-75
2022/09/30 05:47:27;;;;;;;;;;;;;;;6.61;79.53;100505.97;5067618;28;20302;-75
2022/09/30 05:49:53;;;;;;;;;;;;;;;7.03;79.01;100501.63;5063641;28;19925;-78
2022/09/30 05:52:21;;;;;;;;;;;;;;;7.31;78.60;100511.78;5067726;28;19925;-77
2022/09/30 05:54:47;;;;;;;;;;;;;;;7.60;77.19;100516.59;5085435;28;20030;-78
2022/09/30 05:57:14;;;;;;;;;;;;;;;7.63;76.34;100506.03;5068661;28;19924;-78
2022/09/30 05:59:40;;;;;;;;;;;;;;;7.19;78.50;100509.69;5075079;28;19932;-78
2022/09/30 06:02:08;;;;;;;;;;;;;;;7.46;78.82;100512.91;5071819;28;19947;-77
2022/09/30 06:04:34;;;;;;;;;;;;;;;7.86;77.19;100512.00;5054276;28;19924;-77
2022/09/30 06:07:01;;;;;;;;;;;;;;;8.43;76.11;100519.00;5074529;28;19924;-77
2022/09/30 06:09:28;;;;;;;;;;;;;;;8.93;73.96;100511.41;5084661;28;19931;-78
2022/09/30 06:11:56;;;;;;;;;;;;;;;9.40;72.66;100514.28;5076267;28;19924;-77
2022/09/30 06:14:23;;;;;;;;;;;;;;;8.87;72.73;100517.75;5066527;28;19928;-77
2022/09/30 06:16:49;;;;;;;;;;;;;;;9.48;73.07;100518.22;5085997;28;19930;-78
2022/09/30 06:19:15;;;;;;;;;;;;;;;9.36;74.81;100513.56;5072369;28;20338;-78
2022/09/30 06:21:42;;;;;;;;;;;;;;;9.04;76.16;100523.03;5066886;28;19931;-78
2022/09/30 06:24:11;;;;;;;;;;;;;;;9.56;74.00;100526.53;5065911;28;19924;-78
2022/09/30 06:26:41;;;;;;;;;;;;;;;10.14;72.56;100531.34;5084742;28;19924;-77
2022/09/30 06:29:07;;;;;;;;;;;;;;;11.14;69.84;100531.03;5085754;28;19924;-78
2022/09/30 06:31:33;;;;;;;;;;;;;;;11.88;67.35;100528.44;5078148;28;19928;-78
2022/09/30 06:34:04;;;;;;;;;;;;;;;12.02;66.11;100539.81;5065879;28;20277;-78
2022/09/30 06:36:32;;;;;;;;;;;;;;;12.09;66.41;100542.91;5067078;28;19929;-78
2022/09/30 06:38:59;;;;;;;;;;;;;;;12.11;66.38;100556.81;5067966;28;19925;-78
2022/09/30 06:41:26;;;;;;;;;;;;;;;12.75;65.95;100552.81;5087294;28;19931;-78
2022/09/30 06:43:54;;;;;;;;;;;;;;;13.19;63.42;100542.94;5062584;28;20143;-78
2022/09/30 06:46:22;;;;;;;;;;;;;;;13.35;63.39;100548.00;5071909;28;19947;-77
2022/09/30 06:48:51;;;;;;;;;;;;;;;13.48;62.80;100539.22;5064886;28;20288;-78
2022/09/30 06:51:19;;;;;;;;;;;;;;;13.33;63.43;100550.75;5072806;28;19928;-78
2022/09/30 06:53:45;;;;;;;;;;;;;;;13.68;62.41;100544.91;5066191;28;19925;-77
2022/09/30 06:56:11;;;;;;;;;;;;;;;14.28;60.31;100551.25;5065486;28;19940;-78
2022/09/30 06:58:39;;;;;;;;;;;;;;;14.45;59.38;100558.84;5086568;28;19924;-77
2022/09/30 07:01:07;;;;;;;;;;;;;;;14.72;59.28;100555.22;5068229;28;19990;-78
2022/09/30 07:03:34;;;;;;;;;;;;;;;14.85;58.83;100553.38;5066583;28;19928;-77
2022/09/30 07:06:02;;;;;;;;;;;;;;;14.17;61.27;100559.06;5070103;28;19931;-76
2022/09/30 07:08:30;;;;;;;;;;;;;;;14.90;59.20;100553.88;5084193;28;19924;-76
2022/09/30 07:10:57;;;;;;;;;;;;;;;15.32;57.73;100550.75;5064996;28;20474;-78
2022/09/30 07:13:23;;;;;;;;;;;;;;;15.68;56.40;100551.59;5067373;28;20437;-78
2022/09/30 07:15:51;;;;;;;;;;;;;;;15.05;60.80;100558.06;5070287;28;19924;-78
2022/09/30 07:18:19;;;;;;;;;;;;;;;14.24;59.99;100570.03;5066015;28;19958;-77
2022/09/30 07:20:48;;;;;;;;;;;;;;;14.07;63.46;100566.78;5070031;28;20372;-77
2022/09/30 07:23:14;;;;;;;;;;;;;;;14.91;61.89;100569.63;5065553;28;19929;-77
2022/09/30 07:25:48;;;;;;;;;;;;;;;15.14;60.78;100567.97;5065142;28;20281;-77
2022/09/30 07:28:14;;;;;;;;;;;;;;;15.90;60.15;100575.47;5082266;28;19956;-77
2022/09/30 07:30:42;;;;;;;;;;;;;;;15.03;60.15;100575.81;5053799;28;19925;-77
2022/09/30 07:33:08;;;;;;;;;;;;;;;14.91;60.14;100569.63;5071241;28;19925;-77
2022/09/30 07:35:36;;;;;;;;;;;;;;;14.78;60.47;100567.97;5063463;28;20383;-77
2022/09/30 07:38:03;;;;;;;;;;;;;;;14.72;62.69;100569.25;5065960;28;19924;-77
2022/09/30 07:40:30;;;;;;;;;;;;;;;14.68;60.41;100569.56;5067708;28;19924;-74
2022/09/30 07:42:56;;;;;;;;;;;;;;;15.34;59.86;100569.94;5084622;28;19932;-74
2022/09/30 07:45:23;;;;;;;;;;;;;;;15.09;60.93;100567.44;5086410;28;19924;-74
2022/09/30 07:47:49;;;;;;;;;;;;;;;16.63;56.65;100578.53;5075398;28;19930;-74
2022/09/30 07:50:16;;;;;;;;;;;;;;;17.17;55.62;100583.03;5064124;28;19928;-74
2022/09/30 07:52:43;;;;;;;;;;;;;;;17.83;53.84;100579.28;5081958;28;19936;-74
2022/09/30 07:55:10;;;;;;;;;;;;;;;18.45;51.77;100574.75;5072344;28;19928;-74
2022/09/30 07:57:36;;;;;;;;;;;;;;;17.93;52.91;100575.72;5081244;28;19967;-74
2022/09/30 08:00:03;;;;;;;;;;;;;;;18.04;53.25;100580.09;5066005;28;19925;-74
2022/09/30 08:02:30;;;;;;;;;;;;;;;17.36;53.88;100588.53;5062387;28;19925;-75
2022/09/30 08:04:56;;;;;;;;;;;;;;;18.25;51.32;100588.91;5064981;28;19981;-75
2022/09/30 08:07:22;;;;;;;;;;;;;;;18.60;54.26;100593.84;5066505;28;19932;-75
2022/09/30 08:09:50;;;;;;;;;;;;;;;17.94;54.06;100600.44;5059363;28;19925;-75
2022/09/30 08:12:16;;;;;;;;;;;;;;;17.90;54.70;100593.72;5066715;28;20422;-75
2022/09/30 08:14:43;;;;;;;;;;;;;;;17.67;52.66;100592.13;5072200;28;19932;-75
2022/09/30 08:17:10;;;;;;;;;;;;;;;18.07;54.30;100601.06;5079941;28;20379;-75
2022/09/30 08:19:37;;;;;;;;;;;;;;;18.20;54.15;100593.75;5067739;28;19931;-75
2022/09/30 08:22:05;;;;;;;;;;;;;;;19.15;50.49;100595.09;5073723;28;19931;-74
2022/09/30 08:24:31;;;;;;;;;;;;;;;18.84;52.22;100602.31;5072402;28;20351;-74
2022/09/30 08:26:59;;;;;;;;;;;;;;;19.69;48.89;100607.09;5080532;28;19932;-74
2022/09/30 08:29:25;;;;;;;;;;;;;;;20.33;48.09;100605.44;5064784;28;20377;-74
2022/09/30 08:31:52;;;;;;;;;;;;;;;19.68;49.04;100611.56;5062379;28;20031;-74
2022/09/30 08:34:18;;;;;;;;;;;;;;;19.50;50.72;100615.06;5064834;28;19924;-74
2022/09/30 08:36:45;;;;;;;;;;;;;;;20.33;47.10;100609.94;5078351;28;19962;-74
2022/09/30 08:39:12;;;;;;;;;;;;;;;20.83;45.57;100615.78;5084525;28;19963;-73
2022/09/30 08:41:54;;;;;;;;;;;;;;;20.34;46.84;100617.78;5074656;28;19925;-74
2022/09/30 08:44:27;;;;;;;;;;;;;;;19.49;48.98;100619.53;5066669;28;19924;-74
2022/09/30 08:46:57;;;;;;;;;;;;;;;20.22;49.42;100620.72;5086105;28;20379;-73
2022/09/30 08:49:31;;;;;;;;;;;;;;;20.35;47.61;100627.47;5070043;28;19924;-74
2022/09/30 08:51:59;;;;;;;;;;;;;;;20.18;47.76;100616.66;5064366;28;20380;-74
2022/09/30 08:54:29;;;;;;;;;;;;;;;21.04;46.50;100624.34;5064402;28;19970;-75
2022/09/30 08:56:56;;;;;;;;;;;;;;;20.83;46.25;100623.78;5064878;28;19941;-75
2022/09/30 08:59:29;;;;;;;;;;;;;;;21.74;44.86;100625.44;5065283;28;19933;-76
2022/09/30 09:02:00;;;;;;;;;;;;;;;20.22;48.16;100620.72;5071691;28;19924;-75
2022/09/30 09:04:27;;;;;;;;;;;;;;;19.95;46.93;100616.16;5063806;28;19932;-75
2022/09/30 09:06:58;;;;;;;;;;;;;;;19.15;50.57;100624.34;5064267;28;19925;-75
2022/09/30 09:09:41;;;;;;;;;;;;;;;19.45;48.98;100620.78;5067392;28;19924;-75
2022/09/30 09:12:15;;;;;;;;;;;;;;;20.40;48.36;100621.69;5071217;28;19931;-75
2022/09/30 09:14:56;;;;;;;;;;;;;;;20.75;45.52;100629.00;5068379;28;19924;-75
2022/09/30 09:17:35;;;;;;;;;;;;;;;18.92;47.61;100621.06;5064323;28;19925;-75
2022/09/30 09:20:03;;;;;;;;;;;;;;;19.47;48.65;100618.00;5058115;28;20380;-75
2022/09/30 09:22:31;;;;;;;;;;;;;;;18.46;48.76;100632.19;5064272;28;20197;-75
2022/09/30 09:24:58;;;;;;;;;;;;;;;18.95;49.23;100619.97;5064507;28;20434;-76
2022/09/30 09:27:26;;;;;;;;;;;;;;;20.08;48.42;100632.66;5059002;28;19925;-75
2022/09/30 09:30:04;;;;;;;;;;;;;;;20.76;43.73;100623.53;5063167;28;20325;-75
2022/09/30 09:32:31;;;;;;;;;;;;;;;19.75;46.80;100630.47;5065274;28;19931;-75
2022/09/30 09:34:59;;;;;;;;;;;;;;;20.04;45.80;100622.44;5064243;28;19925;-75
2022/09/30 09:38:23;;;;;;;;;;;;;;;20.52;46.86;100625.84;5063819;28;20335;-75
2022/09/30 09:40:18;;;;;;;;;;;;;;;20.93;42.79;100635.22;5040039;28;19932;-75
2022/09/30 09:42:56;;;;;;;;;;;;;;;21.40;43.41;100633.28;5062075;28;19925;-75
2022/09/30 09:45:28;;;;;;;;;;;;;;;21.20;42.93;100626.41;5060899;28;20306;-76
2022/09/30 09:47:56;;;;;;;;;;;;;;;21.06;43.12;100621.56;5062862;28;20376;-76
2022/09/30 09:50:25;;;;;;;;;;;;;;;20.83;43.75;100621.94;5058051;28;19928;-76
2022/09/30 09:53:02;;;;;;;;;;;;;;;20.98;43.28;100616.97;5051649;28;19931;-76
2022/09/30 09:55:28;;;;;;;;;;;;;;;21.50;42.86;100617.22;5063105;28;19975;-75
2022/09/30 09:58:05;;;;;;;;;;;;;;;21.42;43.28;100625.97;5062245;28;20300;-76
2022/09/30 10:03:25;;;;;;;;;;;;;;;21.40;41.51;100616.44;5032964;28;19932;-75
2022/09/30 10:06:02;;;;;;;;;;;;;;;21.85;41.92;100617.19;5058452;28;19924;-76
2022/09/30 10:08:30;;;;;;;;;;;;;;;22.04;41.29;100611.69;5055104;28;19925;-75
2022/09/30 10:10:58;;;;;;;;;;;;;;;21.13;41.15;100610.19;5056069;28;19931;-75
2022/09/30 10:13:25;;;;;;;;;;;;;;;21.41;42.81;100608.28;5068592;28;19924;-75
2022/09/30 10:15:54;;;;;;;;;;;;;;;20.92;45.25;100611.38;5082941;28;19931;-75
2022/09/30 10:18:24;;;;;;;;;;;;;;;20.84;43.25;100604.13;5077192;28;19931;-75
2022/09/30 10:20:51;;;;;;;;;;;;;;;21.17;44.58;100610.72;5065787;28;19932;-75
2022/09/30 10:23:19;;;;;;;;;;;;;;;21.79;46.67;100601.81;5066355;28;19925;-75
2022/09/30 10:25:54;;;;;;;;;;;;;;;21.04;41.99;100607.50;5067842;28;20015;-75
2022/09/30 10:28:23;;;;;;;;;;;;;;;20.91;43.78;100604.38;5065068;28;19931;-75
2022/09/30 10:30:50;;;;;;;;;;;;;;;20.81;43.62;100605.25;5068631;28;19925;-75
2022/09/30 10:33:28;;;;;;;;;;;;;;;20.69;45.25;100608.28;5083392;28;19968;-74
2022/09/30 10:36:02;;;;;;;;;;;;;;;20.61;43.84;100590.38;5078024;28;19924;-75
2022/09/30 10:38:30;;;;;;;;;;;;;;;20.91;42.98;100599.06;5065587;28;20430;-75
2022/09/30 10:40:58;;;;;;;;;;;;;;;20.64;42.86;100598.06;5064648;28;20399;-75
2022/09/30 10:43:26;;;;;;;;;;;;;;;20.94;41.53;100598.75;5067265;28;19924;-75
2022/09/30 10:45:53;;;;;;;;;;;;;;;21.40;42.99;100595.09;5082971;28;19924;-75
2022/09/30 10:48:21;;;;;;;;;;;;;;;21.16;41.62;100593.03;5077559;28;20613;-75
2022/09/30 10:50:51;;;;;;;;;;;;;;;20.96;42.19;100588.75;5066626;28;19965;-75
2022/09/30 10:53:21;;;;;;;;;;;;;;;21.36;39.84;100582.06;5066115;28;19950;-75
2022/09/30 10:55:48;;;;;;;;;;;;;;;20.76;40.49;100596.88;5064750;28;19932;-74
2022/09/30 10:58:23;;;;;;;;;;;;;;;21.16;43.89;100595.69;5065272;28;19924;-75
2022/09/30 11:00:50;;;;;;;;;;;;;;;20.66;41.06;100584.56;5066742;28;19931;-75
2022/09/30 11:03:20;;;;;;;;;;;;;;;21.19;39.93;100577.56;5066283;28;20435;-75
2022/09/30 11:05:49;;;;;;;;;;;;;;;21.07;41.06;100589.41;5066697;28;19928;-75
2022/09/30 11:08:19;;;;;;;;;;;;;;;21.43;40.37;100582.31;5064672;28;19924;-75
2022/09/30 11:10:48;;;;;;;;;;;;;;;21.19;41.16;100598.91;5064272;28;19931;-75
2022/09/30 11:13:18;;;;;;;;;;;;;;;20.84;40.90;100588.16;5063709;28;19956;-75
2022/09/30 11:15:56;;;;;;;;;;;;;;;21.36;37.94;100583.88;5064019;28;19924;-75
2022/09/30 11:18:25;;;;;;;;;;;;;;;21.79;42.59;100573.28;5064425;28;19932;-75
2022/09/30 11:20:54;;;;;;;;;;;;;;;21.95;37.70;100583.25;5064330;28;20403;-78
2022/09/30 11:23:26;;;;;;;;;;;;;;;20.24;39.31;100584.16;5067411;28;19959;-75
2022/09/30 11:25:57;;;;;;;;;;;;;;;20.21;40.58;100584.44;5073235;28;19924;-75
2022/09/30 11:28:35;;;;;;;;;;;;;;;20.89;39.71;100591.19;5084479;28;19924;-75
2022/09/30 11:31:05;;;;;;;;;;;;;;;21.00;42.22;100590.13;5067014;28;20733;-74
2022/09/30 11:33:40;;;;;;;;;;;;;;;20.61;41.08;100584.19;5063723;28;20380;-74
2022/09/30 11:36:14;;;;;;;;;;;;;;;20.32;41.48;100590.44;5066692;28;19924;-74
2022/09/30 11:38:49;;;;;;;;;;;;;;;20.27;40.39;100582.03;5063490;28;19928;-74
2022/09/30 11:41:19;;;;;;;;;;;;;;;20.14;41.22;100581.50;5056942;28;19932;-74
2022/09/30 11:43:51;;;;;;;;;;;;;;;20.02;42.10;100582.69;5064392;28;19928;-73
2022/09/30 11:46:27;;;;;;;;;;;;;;;19.54;41.47;100581.88;5065211;28;19924;-76
2022/09/30 11:49:05;;;;;;;;;;;;;;;19.35;43.31;100588.00;5057405;28;19932;-74
2022/09/30 11:51:34;;;;;;;;;;;;;;;20.00;41.80;100573.97;5062646;28;20296;-74
2022/09/30 11:54:09;;;;;;;;;;;;;;;20.15;40.54;100587.66;5064177;28;19989;-75
2022/09/30 11:56:42;;;;;;;;;;;;;;;19.34;40.04;100573.88;5064876;28;19924;-75
2022/09/30 11:59:15;;;;;;;;;;;;;;;19.75;40.30;100579.91;5064319;28;20402;-75
2022/09/30 12:01:43;;;;;;;;;;;;;;;19.25;40.62;100580.00;5056193;28;19924;-75
2022/09/30 12:04:13;;;;;;;;;;;;;;;19.18;41.43;100581.53;5064096;28;20437;-74
2022/09/30 12:06:41;;;;;;;;;;;;;;;19.01;43.04;100587.53;5065042;28;19924;-75
2022/09/30 12:09:14;;;;;;;;;;;;;;;19.08;42.14;100593.13;5070437;28;20375;-74
2022/09/30 12:11:43;;;;;;;;;;;;;;;19.57;41.53;100590.41;5085999;28;19924;-74
2022/09/30 12:14:14;;;;;;;;;;;;;;;19.57;41.81;100585.09;5077646;28;20434;-75
2022/09/30 12:16:41;;;;;;;;;;;;;;;20.01;40.13;100583.66;5063199;28;19928;-75
2022/09/30 12:19:13;;;;;;;;;;;;;;;19.46;40.73;100587.06;5063824;28;19936;-75
2022/09/30 12:21:41;;;;;;;;;;;;;;;19.56;40.58;100587.88;5065209;28;19924;-75
2022/09/30 12:24:14;;;;;;;;;;;;;;;19.92;40.45;100584.50;5063375;28;19932;-75
2022/09/30 12:26:42;;;;;;;;;;;;;;;20.46;39.47;100586.50;5067241;28;20396;-74
2022/09/30 12:32:08;;;;;;;;;;;;;;;19.44;40.41;100589.84;5085640;28;19940;-75
2022/09/30 12:34:41;;;;;;;;;;;;;;;19.20;41.70;100586.72;5068233;28;20446;-75
2022/09/30 12:37:19;;;;;;;;;;;;;;;19.79;40.53;100584.81;5066172;28;19929;-75
2022/09/30 12:40:01;;;;;;;;;;;;;;;20.45;40.67;100591.97;5062526;28;19924;-75
2022/09/30 12:42:42;;;;;;;;;;;;;;;20.76;38.04;100588.88;5078262;28;19924;-74
2022/09/30 12:45:37;;;;;;;;;;;;;;;21.31;40.75;100580.84;5065757;28;19937;-75
2022/09/30 12:48:05;;;;;;;;;;;;;;;21.82;35.82;100574.78;5063960;28;20384;-75
2022/09/30 12:50:34;;;;;;;;;;;;;;;21.93;37.71;100574.56;5064982;28;20019;-75
2022/09/30 12:53:10;;;;;;;;;;;;;;;20.30;38.04;100575.59;5065151;28;20299;-75
2022/09/30 12:55:39;;;;;;;;;;;;;;;19.94;42.28;100585.22;5067143;28;19933;-75
2022/09/30 12:58:14;;;;;;;;;;;;;;;20.13;40.27;100579.00;5070691;28;19930;-74